createdAt,value
2019-04-20T00:04:33.879Z,95374.19
2019-04-20T00:09:38.701Z,95377.78
2019-04-20T00:14:42.488Z,95376.58
2019-04-20T00:19:54.207Z,95382.13
2019-04-20T00:25:06.601Z,95391.20
2019-04-20T00:30:32.492Z,95396.85
2019-04-20T00:35:14.735Z,95404.00
2019-04-20T00:40:19.579Z,95417.05
2019-04-20T00:45:29.520Z,95406.83
2019-04-20T00:50:44.447Z,95403.91
2019-04-20T00:55:38.038Z,95402.19
2019-04-20T01:01:07.283Z,95395.77
2019-04-20T01:06:12.063Z,95386.60
2019-04-20T01:10:58.232Z,95394.89
2019-04-20T01:16:08.481Z,95397.27
2019-04-20T01:21:14.045Z,95389.07
2019-04-20T01:26:20.821Z,95376.80
2019-04-20T01:31:33.647Z,95373.13
2019-04-20T01:36:52.001Z,95376.00
2019-04-20T01:41:39.308Z,95381.48
2019-04-20T01:46:53.522Z,95375.04
2019-04-20T01:52:03.829Z,95372.22
2019-04-20T01:57:24.859Z,95370.56
2019-04-20T02:02:27.717Z,95370.17
2019-04-20T02:07:38.979Z,95368.38
2019-04-20T02:12:40.874Z,95361.83
2019-04-20T02:17:59.724Z,95364.70
2019-04-20T02:23:06.797Z,95360.84
2019-04-20T02:28:14.623Z,95363.97
2019-04-20T02:33:45.025Z,95366.02
2019-04-20T02:54:19.021Z,95347.38
2019-04-20T02:59:54.064Z,95342.70
2019-04-20T03:04:06.994Z,95346.31
2019-04-20T03:09:32.445Z,95344.14
2019-04-20T03:14:30.309Z,95343.78
2019-04-20T03:19:38.569Z,95344.27
2019-04-20T03:24:54.402Z,95346.08
2019-04-20T03:29:56.624Z,95342.45
2019-04-20T03:40:10.358Z,95350.32
2019-04-20T03:45:07.585Z,95359.42
2019-04-20T03:50:30.981Z,95362.58
2019-04-20T03:55:40.841Z,95359.09
2019-04-20T04:00:55.468Z,95360.80
2019-04-20T04:06:08.363Z,95362.31
2019-04-20T04:11:27.614Z,95366.20
2019-04-20T04:16:18.169Z,95375.98
2019-04-20T04:21:37.120Z,95385.06
2019-04-20T04:26:49.954Z,95384.53
2019-04-20T04:32:07.856Z,95387.56
2019-04-20T04:37:10.646Z,95384.33
2019-04-20T04:42:38.486Z,95390.78
2019-04-20T04:47:08.035Z,95401.16
2019-04-20T04:52:15.927Z,95396.06
2019-04-20T04:57:18.252Z,95401.05
2019-04-20T05:02:29.796Z,95397.83
2019-04-20T05:07:47.597Z,95398.41
2019-04-20T05:12:40.926Z,95400.27
2019-04-20T05:18:07.227Z,95400.99
2019-04-20T05:23:13.023Z,95401.62
2019-04-20T05:28:20.447Z,95402.38
2019-04-20T05:33:27.053Z,95419.97
2019-04-20T05:43:47.274Z,95425.08
2019-04-20T05:48:56.167Z,95434.28
2019-04-20T05:54:02.636Z,95435.86
2019-04-20T05:59:09.785Z,95446.31
2019-04-20T06:04:17.442Z,95450.84
2019-04-20T06:09:42.248Z,95451.09
2019-04-20T06:14:47.024Z,95450.19
2019-04-20T06:20:02.331Z,95451.64
2019-04-20T06:25:33.555Z,95451.55
2019-04-20T06:30:13.685Z,95451.65
2019-04-20T06:35:48.154Z,95456.03
2019-04-20T06:41:00.859Z,95466.55
2019-04-20T06:45:55.127Z,95471.59
2019-04-20T06:50:46.541Z,95468.33
2019-04-20T06:55:57.311Z,95472.38
2019-04-20T07:01:06.570Z,95466.46
2019-04-20T07:06:29.333Z,95496.53
2019-04-20T07:11:18.907Z,95483.70
2019-04-20T07:16:40.792Z,95498.77
2019-04-20T07:27:04.675Z,95501.00
2019-04-20T07:32:03.107Z,95505.48
2019-04-20T07:37:43.294Z,95501.39
2019-04-20T07:42:29.032Z,95506.09
2019-04-20T07:47:38.057Z,95512.95
2019-04-20T07:52:14.426Z,95512.17
2019-04-20T07:57:35.036Z,95514.66
2019-04-20T08:03:12.905Z,95527.25
2019-04-20T08:08:10.608Z,95514.91
2019-04-20T08:13:29.211Z,95519.69
2019-04-20T08:23:32.077Z,95519.20
2019-04-20T08:28:35.883Z,95528.37
2019-04-20T08:34:07.676Z,95512.48
2019-04-20T08:44:32.394Z,95516.84
2019-04-20T08:49:22.144Z,95522.71
2019-04-20T08:54:19.266Z,95518.45
2019-04-20T08:59:09.376Z,95527.27
2019-04-20T09:04:22.002Z,95508.68
2019-04-20T09:09:58.169Z,95521.49
2019-04-20T09:14:28.381Z,95528.47
2019-04-20T09:19:45.437Z,95527.78
2019-04-20T09:24:57.867Z,95521.69
2019-04-20T09:30:05.869Z,95537.45
2019-04-20T09:35:13.613Z,95530.05
2019-04-20T09:40:21.327Z,95531.94
2019-04-20T09:45:21.296Z,95528.90
2019-04-20T09:50:35.986Z,95521.20
2019-04-20T09:55:38.284Z,95505.92
2019-04-20T10:00:56.837Z,95524.39
2019-04-20T10:05:47.789Z,95527.50
2019-04-20T10:10:52.927Z,95526.58
2019-04-20T10:15:59.733Z,95523.50
2019-04-20T10:21:05.561Z,95529.35
2019-04-20T10:26:10.155Z,95544.59
2019-04-20T10:31:14.861Z,95538.12
2019-04-20T10:36:40.112Z,95537.88
2019-04-20T10:41:52.596Z,95541.42
2019-04-20T10:46:54.603Z,95540.51
2019-04-20T10:51:59.908Z,95544.80
2019-04-20T10:57:05.732Z,95558.45
2019-04-20T11:02:11.972Z,95546.69
2019-04-20T11:07:16.848Z,95545.91
2019-04-20T11:12:22.143Z,95558.58
2019-04-20T11:17:29.510Z,95555.98
2019-04-20T11:22:34.754Z,95554.83
2019-04-20T11:27:40.508Z,95577.02
2019-04-20T11:32:46.303Z,95568.23
2019-04-20T11:37:51.316Z,95564.55
2019-04-20T11:42:57.441Z,95577.02
2019-04-20T11:48:03.279Z,95569.50
2019-04-20T11:53:09.174Z,95571.33
2019-04-20T11:58:14.198Z,95566.29
2019-04-20T12:03:28.276Z,95566.29
2019-04-20T12:08:27.230Z,95560.77
2019-04-20T12:13:31.924Z,95564.81
2019-04-20T12:18:37.885Z,95572.98
2019-04-20T12:23:42.473Z,95574.70
2019-04-20T12:28:47.594Z,95561.20
2019-04-20T12:33:52.606Z,95563.82
2019-04-20T12:38:59.235Z,95553.41
2019-04-20T12:44:03.982Z,95553.89
2019-04-20T12:49:09.510Z,95557.14
2019-04-20T12:54:14.588Z,95557.05
2019-04-20T12:59:19.207Z,95557.49
2019-04-20T13:04:24.716Z,95562.98
2019-04-20T13:09:36.792Z,95571.04
2019-04-20T13:15:00.549Z,95544.64
2019-04-20T13:20:08.000Z,95555.22
2019-04-20T13:30:32.249Z,95550.87
2019-04-20T13:35:38.287Z,95552.50
2019-04-20T13:40:43.966Z,95555.73
2019-04-20T13:45:49.009Z,95557.28
2019-04-20T13:50:54.016Z,95558.37
2019-04-20T13:55:59.233Z,95549.51
2019-04-20T14:01:06.179Z,95558.39
2019-04-20T14:06:11.072Z,95549.37
2019-04-20T14:11:15.764Z,95548.08
2019-04-20T14:16:20.947Z,95551.23
2019-04-20T14:21:26.075Z,95551.56
2019-04-20T14:26:30.808Z,95553.44
2019-04-20T14:31:35.366Z,95542.47
2019-04-20T14:36:41.255Z,95546.20
2019-04-20T14:41:46.563Z,95543.36
2019-04-20T14:46:51.668Z,95538.07
2019-04-20T14:51:58.157Z,95541.14
2019-04-20T14:57:03.420Z,95539.89
2019-04-20T15:02:10.535Z,95537.31
2019-04-20T15:07:15.317Z,95543.57
2019-04-20T15:12:21.275Z,95537.45
2019-04-20T15:17:29.814Z,95536.39
2019-04-20T15:22:36.223Z,95547.94
2019-04-20T15:27:43.974Z,95549.32
2019-04-20T15:32:47.412Z,95546.51
2019-04-20T15:37:52.981Z,95547.75
2019-04-20T15:43:06.465Z,95541.66
2019-04-20T15:48:05.869Z,95542.87
2019-04-20T15:53:11.386Z,95542.13
2019-04-20T15:58:16.418Z,95547.39
2019-04-20T16:03:32.923Z,95544.41
2019-04-20T16:08:42.153Z,95542.30
2019-04-20T16:13:50.379Z,95545.45
2019-04-20T16:18:54.923Z,95551.27
2019-04-20T16:24:04.496Z,95543.77
2019-04-20T16:29:11.519Z,95549.58
2019-04-20T16:34:17.137Z,95540.50
2019-04-20T16:39:22.670Z,95551.46
2019-04-20T16:44:27.465Z,95544.32
2019-04-20T16:49:32.785Z,95546.56
2019-04-20T16:54:37.669Z,95548.53
2019-04-20T16:59:48.157Z,95542.84
2019-04-20T17:04:51.511Z,95540.22
2019-04-20T17:09:55.933Z,95546.33
2019-04-20T17:15:01.409Z,95546.12
2019-04-20T17:20:09.261Z,95554.29
2019-04-20T17:25:16.305Z,95548.97
2019-04-20T17:30:26.942Z,95553.82
2019-04-20T17:35:41.509Z,95553.17
2019-04-20T17:40:58.999Z,95569.05
2019-04-20T17:45:55.966Z,95564.93
2019-04-20T17:51:12.256Z,95569.86
2019-04-20T17:56:01.650Z,95575.81
2019-04-20T18:01:26.805Z,95581.28
2019-04-20T18:06:44.095Z,95588.28
2019-04-20T18:11:40.336Z,95590.38
2019-04-20T18:17:03.479Z,95592.23
2019-04-20T18:21:51.808Z,95601.63
2019-04-20T18:27:14.092Z,95599.61
2019-04-20T18:32:23.076Z,95609.72
2019-04-20T18:37:28.823Z,95611.41
2019-04-20T18:42:40.452Z,95613.70
2019-04-20T18:47:59.992Z,95618.05
2019-04-20T18:52:47.785Z,95613.80
2019-04-20T18:57:53.083Z,95615.02
2019-04-20T19:03:11.124Z,95611.05
2019-04-20T19:08:09.561Z,95613.59
2019-04-20T19:13:29.669Z,95616.34
2019-04-20T19:18:45.257Z,95618.78
2019-04-20T19:23:40.537Z,95618.78
2019-04-20T19:28:48.104Z,95620.21
2019-04-20T19:34:07.503Z,95614.55
2019-04-20T19:39:10.986Z,95609.86
2019-04-20T19:44:13.091Z,95613.70
2019-04-20T19:49:19.630Z,95613.21
2019-04-20T19:54:40.063Z,95616.96
2019-04-20T19:59:38.713Z,95611.40
2019-04-20T20:04:49.178Z,95614.55
2019-04-20T20:09:56.568Z,95609.44
2019-04-20T20:14:57.528Z,95602.21
2019-04-20T20:20:25.138Z,95601.70
2019-04-20T20:25:09.351Z,95614.89
2019-04-20T20:30:23.044Z,95608.80
2019-04-20T20:35:25.457Z,95617.00
2019-04-20T20:40:32.807Z,95613.55
2019-04-20T20:45:41.653Z,95616.89
2019-04-20T20:50:58.756Z,95619.43
2019-04-20T20:55:53.290Z,95620.69
2019-04-20T21:01:03.413Z,95612.31
2019-04-20T21:06:00.016Z,95604.32
2019-04-20T21:11:11.546Z,95601.88
2019-04-20T21:16:18.198Z,95604.75
2019-04-20T21:21:32.442Z,95606.31
2019-04-20T21:26:30.604Z,95606.23
2019-04-20T21:31:31.427Z,95607.52
2019-04-20T21:36:36.985Z,95613.56
2019-04-20T21:41:51.233Z,95613.70
2019-04-20T21:46:53.786Z,95613.14
2019-04-20T21:52:01.287Z,95603.19
2019-04-20T21:57:03.931Z,95604.65
2019-04-20T22:02:17.210Z,95605.29
2019-04-20T22:07:14.476Z,95606.36
2019-04-20T22:12:20.240Z,95604.67
2019-04-20T22:17:28.649Z,95600.28
2019-04-20T22:22:49.416Z,95606.97
2019-04-20T22:27:38.937Z,95597.43
2019-04-20T22:32:46.984Z,95593.27
2019-04-20T22:37:59.803Z,95597.16
2019-04-20T22:43:04.329Z,95591.98
2019-04-20T22:48:12.225Z,95587.17
2019-04-20T22:53:33.795Z,95584.41
2019-04-20T22:58:38.779Z,95584.72
2019-04-20T23:03:31.163Z,95577.84
2019-04-20T23:08:38.299Z,95576.39
2019-04-20T23:13:46.579Z,95574.44
2019-04-20T23:18:51.959Z,95574.52
2019-04-20T23:24:02.687Z,95566.38
2019-04-20T23:29:02.949Z,95556.38
2019-04-20T23:34:15.309Z,95546.83
2019-04-20T23:39:14.832Z,95541.03
2019-04-20T23:44:40.047Z,95537.86
2019-04-20T23:50:06.087Z,95539.70
2019-04-20T23:54:59.102Z,95541.65
2019-04-20T23:59:58.454Z,95539.72
